sensor_id;sensor_type;location;lat;lon;timestamp;P1;durP1;ratioP1;P2;durP2;ratioP2
9773;SDS011;4926;42.670;23.316;2023-11-21T00:00:56;22.33;;;12.98;;
9773;SDS011;4926;42.670;23.316;2023-11-21T00:03:23;18.15;;;12.68;;
9773;SDS011;4926;42.670;23.316;2023-11-21T00:05:54;20.35;;;13.82;;
9773;SDS011;4926;42.670;23.316;2023-11-21T00:08:21;21.40;;;12.73;;
9773;SDS011;4926;42.670;23.316;2023-11-21T00:10:50;20.23;;;12.98;;
9773;SDS011;4926;42.670;23.316;2023-11-21T00:13:17;21.65;;;12.85;;
9773;SDS011;4926;42.670;23.316;2023-11-21T00:15:44;19.33;;;13.75;;
9773;SDS011;4926;42.670;23.316;2023-11-21T00:18:11;21.95;;;13.75;;
9773;SDS011;4926;42.670;23.316;2023-11-21T00:20:39;22.80;;;14.15;;
9773;SDS011;4926;42.670;23.316;2023-11-21T00:23:08;21.65;;;13.73;;
9773;SDS011;4926;42.670;23.316;2023-11-21T00:25:35;22.45;;;14.25;;
9773;SDS011;4926;42.670;23.316;2023-11-21T00:28:02;23.17;;;14.65;;
9773;SDS011;4926;42.670;23.316;2023-11-21T00:30:31;22.17;;;13.70;;
9773;SDS011;4926;42.670;23.316;2023-11-21T00:32:58;22.70;;;13.90;;
9773;SDS011;4926;42.670;23.316;2023-11-21T00:35:26;20.65;;;14.35;;
9773;SDS011;4926;42.670;23.316;2023-11-21T00:37:53;25.73;;;16.10;;
9773;SDS011;4926;42.670;23.316;2023-11-21T00:40:25;24.40;;;15.82;;
9773;SDS011;4926;42.670;23.316;2023-11-21T00:42:51;27.35;;;17.02;;
9773;SDS011;4926;42.670;23.316;2023-11-21T00:45:18;27.00;;;18.15;;
9773;SDS011;4926;42.670;23.316;2023-11-21T00:47:45;29.25;;;18.30;;
9773;SDS011;4926;42.670;23.316;2023-11-21T00:50:14;28.70;;;19.58;;
9773;SDS011;4926;42.670;23.316;2023-11-21T00:52:45;28.02;;;19.30;;
9773;SDS011;4926;42.670;23.316;2023-11-21T00:55:12;27.95;;;18.55;;
9773;SDS011;4926;42.670;23.316;2023-11-21T00:57:41;28.10;;;18.42;;
9773;SDS011;4926;42.670;23.316;2023-11-21T01:00:08;27.95;;;19.90;;
9773;SDS011;4926;42.670;23.316;2023-11-21T01:02:41;35.00;;;20.80;;
9773;SDS011;4926;42.670;23.316;2023-11-21T01:05:09;29.75;;;19.63;;
9773;SDS011;4926;42.670;23.316;2023-11-21T01:07:36;34.75;;;21.67;;
9773;SDS011;4926;42.670;23.316;2023-11-21T01:10:03;31.45;;;20.77;;
9773;SDS011;4926;42.670;23.316;2023-11-21T01:12:32;34.63;;;22.08;;
9773;SDS011;4926;42.670;23.316;2023-11-21T01:15:02;32.97;;;21.42;;
9773;SDS011;4926;42.670;23.316;2023-11-21T01:17:29;38.13;;;24.33;;
9773;SDS011;4926;42.670;23.316;2023-11-21T01:20:00;32.63;;;20.92;;
9773;SDS011;4926;42.670;23.316;2023-11-21T01:22:27;36.22;;;22.13;;
9773;SDS011;4926;42.670;23.316;2023-11-21T01:24:53;30.88;;;20.80;;
9773;SDS011;4926;42.670;23.316;2023-11-21T01:27:21;31.48;;;20.08;;
9773;SDS011;4926;42.670;23.316;2023-11-21T01:29:48;31.35;;;19.33;;
9773;SDS011;4926;42.670;23.316;2023-11-21T01:32:16;31.90;;;20.13;;
9773;SDS011;4926;42.670;23.316;2023-11-21T01:34:43;28.17;;;19.88;;
9773;SDS011;4926;42.670;23.316;2023-11-21T01:37:11;30.10;;;19.80;;
9773;SDS011;4926;42.670;23.316;2023-11-21T01:39:39;27.20;;;17.85;;
9773;SDS011;4926;42.670;23.316;2023-11-21T01:42:06;29.25;;;19.25;;
9773;SDS011;4926;42.670;23.316;2023-11-21T01:44:33;32.95;;;20.25;;
9773;SDS011;4926;42.670;23.316;2023-11-21T01:47:05;30.15;;;18.63;;
9773;SDS011;4926;42.670;23.316;2023-11-21T01:49:39;31.20;;;18.63;;
9773;SDS011;4926;42.670;23.316;2023-11-21T01:52:07;28.70;;;17.40;;
9773;SDS011;4926;42.670;23.316;2023-11-21T01:54:36;28.25;;;17.48;;
9773;SDS011;4926;42.670;23.316;2023-11-21T01:57:04;29.88;;;18.92;;
9773;SDS011;4926;42.670;23.316;2023-11-21T01:59:36;30.27;;;17.02;;
9773;SDS011;4926;42.670;23.316;2023-11-21T02:02:04;24.67;;;17.25;;
9773;SDS011;4926;42.670;23.316;2023-11-21T02:04:32;25.90;;;17.63;;
9773;SDS011;4926;42.670;23.316;2023-11-21T02:07:04;25.30;;;16.48;;
9773;SDS011;4926;42.670;23.316;2023-11-21T02:09:31;32.15;;;20.27;;
9773;SDS011;4926;42.670;23.316;2023-11-21T02:11:59;31.58;;;21.42;;
9773;SDS011;4926;42.670;23.316;2023-11-21T02:14:26;39.60;;;23.48;;
9773;SDS011;4926;42.670;23.316;2023-11-21T02:16:54;38.67;;;24.23;;
9773;SDS011;4926;42.670;23.316;2023-11-21T02:19:22;45.35;;;28.15;;
9773;SDS011;4926;42.670;23.316;2023-11-21T02:21:51;53.58;;;31.67;;
9773;SDS011;4926;42.670;23.316;2023-11-21T02:24:21;48.55;;;31.52;;
9773;SDS011;4926;42.670;23.316;2023-11-21T02:26:48;49.85;;;31.38;;
9773;SDS011;4926;42.670;23.316;2023-11-21T02:29:20;43.63;;;27.25;;
9773;SDS011;4926;42.670;23.316;2023-11-21T02:31:53;37.42;;;22.60;;
9773;SDS011;4926;42.670;23.316;2023-11-21T02:34:22;34.47;;;23.40;;
9773;SDS011;4926;42.670;23.316;2023-11-21T02:36:50;37.42;;;22.70;;
9773;SDS011;4926;42.670;23.316;2023-11-21T02:39:27;34.35;;;20.63;;
9773;SDS011;4926;42.670;23.316;2023-11-21T02:41:54;37.53;;;22.00;;
9773;SDS011;4926;42.670;23.316;2023-11-21T02:44:20;33.58;;;21.88;;
9773;SDS011;4926;42.670;23.316;2023-11-21T02:46:47;43.25;;;22.10;;
9773;SDS011;4926;42.670;23.316;2023-11-21T02:49:14;34.30;;;20.88;;
9773;SDS011;4926;42.670;23.316;2023-11-21T02:51:41;34.00;;;19.65;;
9773;SDS011;4926;42.670;23.316;2023-11-21T02:54:19;28.75;;;18.75;;
9773;SDS011;4926;42.670;23.316;2023-11-21T02:56:49;29.73;;;17.90;;
9773;SDS011;4926;42.670;23.316;2023-11-21T02:59:18;30.65;;;18.67;;
9773;SDS011;4926;42.670;23.316;2023-11-21T03:01:45;34.63;;;19.65;;
9773;SDS011;4926;42.670;23.316;2023-11-21T03:04:12;22.77;;;16.23;;
9773;SDS011;4926;42.670;23.316;2023-11-21T03:06:42;25.00;;;17.83;;
9773;SDS011;4926;42.670;23.316;2023-11-21T03:09:12;30.67;;;18.80;;
9773;SDS011;4926;42.670;23.316;2023-11-21T03:11:39;29.23;;;18.02;;
9773;SDS011;4926;42.670;23.316;2023-11-21T03:14:09;25.95;;;16.77;;
9773;SDS011;4926;42.670;23.316;2023-11-21T03:16:36;27.60;;;17.92;;
9773;SDS011;4926;42.670;23.316;2023-11-21T03:19:04;27.65;;;17.90;;
9773;SDS011;4926;42.670;23.316;2023-11-21T03:21:31;25.75;;;17.88;;
9773;SDS011;4926;42.670;23.316;2023-11-21T03:24:01;25.23;;;17.85;;
9773;SDS011;4926;42.670;23.316;2023-11-21T03:26:31;26.38;;;18.20;;
9773;SDS011;4926;42.670;23.316;2023-11-21T03:29:03;39.08;;;23.20;;
9773;SDS011;4926;42.670;23.316;2023-11-21T03:31:32;36.63;;;23.05;;
9773;SDS011;4926;42.670;23.316;2023-11-21T03:33:59;34.15;;;23.08;;
9773;SDS011;4926;42.670;23.316;2023-11-21T03:36:33;26.35;;;18.05;;
9773;SDS011;4926;42.670;23.316;2023-11-21T03:39:03;26.45;;;16.45;;
9773;SDS011;4926;42.670;23.316;2023-11-21T03:41:30;25.48;;;16.80;;
9773;SDS011;4926;42.670;23.316;2023-11-21T03:43:57;28.80;;;18.20;;
9773;SDS011;4926;42.670;23.316;2023-11-21T03:46:24;27.92;;;17.90;;
9773;SDS011;4926;42.670;23.316;2023-11-21T03:49:02;24.55;;;17.85;;
9773;SDS011;4926;42.670;23.316;2023-11-21T03:51:32;29.00;;;18.17;;
9773;SDS011;4926;42.670;23.316;2023-11-21T03:54:02;26.02;;;17.58;;
9773;SDS011;4926;42.670;23.316;2023-11-21T03:56:29;27.35;;;17.95;;
9773;SDS011;4926;42.670;23.316;2023-11-21T03:58:59;32.58;;;20.92;;
9773;SDS011;4926;42.670;23.316;2023-11-21T04:01:25;49.13;;;33.95;;
9773;SDS011;4926;42.670;23.316;2023-11-21T04:03:54;32.47;;;21.13;;
9773;SDS011;4926;42.670;23.316;2023-11-21T04:06:23;32.65;;;21.17;;
9773;SDS011;4926;42.670;23.316;2023-11-21T04:08:50;34.17;;;21.52;;
9773;SDS011;4926;42.670;23.316;2023-11-21T04:11:19;38.10;;;21.85;;
9773;SDS011;4926;42.670;23.316;2023-11-21T04:13:49;36.45;;;21.55;;
9773;SDS011;4926;42.670;23.316;2023-11-21T04:16:18;31.83;;;20.30;;
9773;SDS011;4926;42.670;23.316;2023-11-21T04:18:44;30.13;;;20.23;;
9773;SDS011;4926;42.670;23.316;2023-11-21T04:21:11;28.52;;;19.77;;
9773;SDS011;4926;42.670;23.316;2023-11-21T04:23:40;28.75;;;19.70;;
9773;SDS011;4926;42.670;23.316;2023-11-21T04:26:06;32.58;;;20.55;;
9773;SDS011;4926;42.670;23.316;2023-11-21T04:28:33;33.88;;;21.80;;
9773;SDS011;4926;42.670;23.316;2023-11-21T04:31:00;32.30;;;21.42;;
9773;SDS011;4926;42.670;23.316;2023-11-21T04:33:27;34.38;;;21.67;;
9773;SDS011;4926;42.670;23.316;2023-11-21T04:35:54;29.23;;;21.10;;
9773;SDS011;4926;42.670;23.316;2023-11-21T04:38:21;30.42;;;18.00;;
9773;SDS011;4926;42.670;23.316;2023-11-21T04:40:49;23.95;;;16.70;;
9773;SDS011;4926;42.670;23.316;2023-11-21T04:43:16;31.25;;;16.95;;
9773;SDS011;4926;42.670;23.316;2023-11-21T04:45:43;26.50;;;16.80;;
9773;SDS011;4926;42.670;23.316;2023-11-21T04:48:10;22.55;;;15.18;;
9773;SDS011;4926;42.670;23.316;2023-11-21T04:50:37;23.45;;;15.13;;
9773;SDS011;4926;42.670;23.316;2023-11-21T04:53:07;19.60;;;13.73;;
9773;SDS011;4926;42.670;23.316;2023-11-21T04:55:33;26.42;;;14.20;;
9773;SDS011;4926;42.670;23.316;2023-11-21T04:58:02;25.77;;;16.17;;
9773;SDS011;4926;42.670;23.316;2023-11-21T05:00:32;29.20;;;17.38;;
9773;SDS011;4926;42.670;23.316;2023-11-21T05:02:59;24.83;;;17.10;;
9773;SDS011;4926;42.670;23.316;2023-11-21T05:05:26;28.73;;;17.55;;
9773;SDS011;4926;42.670;23.316;2023-11-21T05:07:54;27.45;;;18.00;;
9773;SDS011;4926;42.670;23.316;2023-11-21T05:10:24;27.20;;;17.50;;
9773;SDS011;4926;42.670;23.316;2023-11-21T05:12:51;20.90;;;13.45;;
9773;SDS011;4926;42.670;23.316;2023-11-21T05:15:19;18.60;;;12.93;;
9773;SDS011;4926;42.670;23.316;2023-11-21T05:17:47;16.02;;;11.73;;
9773;SDS011;4926;42.670;23.316;2023-11-21T05:20:17;19.98;;;9.90;;
9773;SDS011;4926;42.670;23.316;2023-11-21T05:22:49;19.20;;;9.90;;
9773;SDS011;4926;42.670;23.316;2023-11-21T05:25:18;18.20;;;12.02;;
9773;SDS011;4926;42.670;23.316;2023-11-21T05:27:45;18.73;;;11.05;;
9773;SDS011;4926;42.670;23.316;2023-11-21T05:30:14;13.95;;;10.32;;
9773;SDS011;4926;42.670;23.316;2023-11-21T05:32:43;14.70;;;10.43;;
9773;SDS011;4926;42.670;23.316;2023-11-21T05:35:11;14.25;;;9.95;;
9773;SDS011;4926;42.670;23.316;2023-11-21T05:37:40;12.20;;;9.00;;
9773;SDS011;4926;42.670;23.316;2023-11-21T05:40:08;16.10;;;9.18;;
9773;SDS011;4926;42.670;23.316;2023-11-21T05:42:37;24.08;;;14.57;;
9773;SDS011;4926;42.670;23.316;2023-11-21T05:45:05;35.83;;;18.02;;
9773;SDS011;4926;42.670;23.316;2023-11-21T05:47:36;28.65;;;16.95;;
9773;SDS011;4926;42.670;23.316;2023-11-21T05:50:06;26.20;;;18.08;;
9773;SDS011;4926;42.670;23.316;2023-11-21T05:52:37;27.52;;;17.30;;
9773;SDS011;4926;42.670;23.316;2023-11-21T05:55:07;27.45;;;18.40;;
9773;SDS011;4926;42.670;23.316;2023-11-21T05:57:38;25.58;;;16.25;;
9773;SDS011;4926;42.670;23.316;2023-11-21T06:00:09;23.60;;;15.40;;
9773;SDS011;4926;42.670;23.316;2023-11-21T06:02:45;24.02;;;15.27;;
9773;SDS011;4926;42.670;23.316;2023-11-21T06:05:13;24.92;;;15.63;;
9773;SDS011;4926;42.670;23.316;2023-11-21T06:07:44;21.40;;;15.00;;
9773;SDS011;4926;42.670;23.316;2023-11-21T06:10:11;24.77;;;15.18;;
9773;SDS011;4926;42.670;23.316;2023-11-21T06:12:39;24.42;;;15.23;;
9773;SDS011;4926;42.670;23.316;2023-11-21T06:15:08;27.35;;;17.00;;
9773;SDS011;4926;42.670;23.316;2023-11-21T06:17:38;21.38;;;15.02;;
9773;SDS011;4926;42.670;23.316;2023-11-21T06:20:06;22.33;;;16.02;;
9773;SDS011;4926;42.670;23.316;2023-11-21T06:22:37;23.00;;;15.02;;
9773;SDS011;4926;42.670;23.316;2023-11-21T06:25:07;24.05;;;15.30;;
9773;SDS011;4926;42.670;23.316;2023-11-21T06:27:37;22.05;;;14.30;;
9773;SDS011;4926;42.670;23.316;2023-11-21T06:30:05;27.48;;;14.60;;
9773;SDS011;4926;42.670;23.316;2023-11-21T06:32:34;25.58;;;14.32;;
9773;SDS011;4926;42.670;23.316;2023-11-21T06:35:02;25.33;;;14.52;;
9773;SDS011;4926;42.670;23.316;2023-11-21T06:37:29;24.65;;;15.15;;
9773;SDS011;4926;42.670;23.316;2023-11-21T06:39:58;19.90;;;14.35;;
9773;SDS011;4926;42.670;23.316;2023-11-21T06:42:26;24.73;;;15.13;;
9773;SDS011;4926;42.670;23.316;2023-11-21T06:44:55;23.73;;;15.55;;
9773;SDS011;4926;42.670;23.316;2023-11-21T06:47:24;25.92;;;15.13;;
9773;SDS011;4926;42.670;23.316;2023-11-21T06:49:54;28.05;;;16.77;;
9773;SDS011;4926;42.670;23.316;2023-11-21T06:52:23;34.47;;;17.77;;
9773;SDS011;4926;42.670;23.316;2023-11-21T06:54:52;28.45;;;19.33;;
9773;SDS011;4926;42.670;23.316;2023-11-21T06:57:22;34.28;;;20.00;;
9773;SDS011;4926;42.670;23.316;2023-11-21T06:59:54;32.92;;;21.55;;
9773;SDS011;4926;42.670;23.316;2023-11-21T07:02:22;35.83;;;21.77;;
9773;SDS011;4926;42.670;23.316;2023-11-21T07:04:49;30.48;;;21.08;;
9773;SDS011;4926;42.670;23.316;2023-11-21T07:07:22;30.45;;;20.08;;
9773;SDS011;4926;42.670;23.316;2023-11-21T07:09:49;31.95;;;20.67;;
9773;SDS011;4926;42.670;23.316;2023-11-21T07:12:17;35.38;;;21.33;;
9773;SDS011;4926;42.670;23.316;2023-11-21T07:14:45;38.63;;;21.38;;
9773;SDS011;4926;42.670;23.316;2023-11-21T07:17:12;30.30;;;20.75;;
9773;SDS011;4926;42.670;23.316;2023-11-21T07:19:39;34.10;;;19.70;;
9773;SDS011;4926;42.670;23.316;2023-11-21T07:22:06;27.42;;;18.27;;
9773;SDS011;4926;42.670;23.316;2023-11-21T07:24:34;27.50;;;17.13;;
9773;SDS011;4926;42.670;23.316;2023-11-21T07:27:03;30.83;;;18.55;;
9773;SDS011;4926;42.670;23.316;2023-11-21T07:29:30;17.13;;;9.68;;
9773;SDS011;4926;42.670;23.316;2023-11-21T07:31:59;16.92;;;9.70;;
9773;SDS011;4926;42.670;23.316;2023-11-21T07:34:26;15.15;;;9.75;;
9773;SDS011;4926;42.670;23.316;2023-11-21T07:36:58;17.58;;;11.88;;
9773;SDS011;4926;42.670;23.316;2023-11-21T07:39:27;27.02;;;15.25;;
9773;SDS011;4926;42.670;23.316;2023-11-21T07:41:54;28.25;;;18.48;;
9773;SDS011;4926;42.670;23.316;2023-11-21T07:44:23;28.05;;;16.15;;
9773;SDS011;4926;42.670;23.316;2023-11-21T07:46:52;24.25;;;16.02;;
9773;SDS011;4926;42.670;23.316;2023-11-21T07:49:23;30.67;;;16.65;;
9773;SDS011;4926;42.670;23.316;2023-11-21T07:51:51;25.35;;;15.32;;
9773;SDS011;4926;42.670;23.316;2023-11-21T07:54:18;36.25;;;17.30;;
9773;SDS011;4926;42.670;23.316;2023-11-21T07:56:46;24.92;;;15.32;;
9773;SDS011;4926;42.670;23.316;2023-11-21T07:59:13;30.45;;;17.20;;
9773;SDS011;4926;42.670;23.316;2023-11-21T08:01:40;23.35;;;13.27;;
9773;SDS011;4926;42.670;23.316;2023-11-21T08:04:08;22.88;;;12.20;;
9773;SDS011;4926;42.670;23.316;2023-11-21T08:06:36;23.92;;;13.43;;
9773;SDS011;4926;42.670;23.316;2023-11-21T08:09:03;21.30;;;13.45;;
9773;SDS011;4926;42.670;23.316;2023-11-21T08:11:30;24.88;;;14.13;;
9773;SDS011;4926;42.670;23.316;2023-11-21T08:13:58;22.90;;;14.60;;
9773;SDS011;4926;42.670;23.316;2023-11-21T08:16:25;25.38;;;13.50;;
9773;SDS011;4926;42.670;23.316;2023-11-21T08:18:52;36.78;;;17.33;;
9773;SDS011;4926;42.670;23.316;2023-11-21T08:21:19;30.00;;;15.63;;
9773;SDS011;4926;42.670;23.316;2023-11-21T08:23:50;23.35;;;15.18;;
9773;SDS011;4926;42.670;23.316;2023-11-21T08:26:19;24.63;;;15.02;;
9773;SDS011;4926;42.670;23.316;2023-11-21T08:28:46;28.23;;;16.48;;
9773;SDS011;4926;42.670;23.316;2023-11-21T08:31:17;21.85;;;14.43;;
9773;SDS011;4926;42.670;23.316;2023-11-21T08:33:49;26.17;;;15.35;;
9773;SDS011;4926;42.670;23.316;2023-11-21T08:36:16;25.15;;;14.48;;
9773;SDS011;4926;42.670;23.316;2023-11-21T08:38:43;26.73;;;16.95;;
9773;SDS011;4926;42.670;23.316;2023-11-21T08:41:11;22.02;;;15.02;;
9773;SDS011;4926;42.670;23.316;2023-11-21T08:43:39;22.38;;;14.65;;
9773;SDS011;4926;42.670;23.316;2023-11-21T08:46:07;32.67;;;16.77;;
9773;SDS011;4926;42.670;23.316;2023-11-21T08:48:35;24.48;;;16.35;;
9773;SDS011;4926;42.670;23.316;2023-11-21T08:51:02;23.67;;;16.45;;
9773;SDS011;4926;42.670;23.316;2023-11-21T08:53:30;26.45;;;16.05;;
9773;SDS011;4926;42.670;23.316;2023-11-21T08:55:57;28.95;;;15.90;;
9773;SDS011;4926;42.670;23.316;2023-11-21T08:58:25;21.40;;;15.70;;
9773;SDS011;4926;42.670;23.316;2023-11-21T09:00:52;25.95;;;15.75;;
9773;SDS011;4926;42.670;23.316;2023-11-21T09:03:21;22.45;;;14.10;;
9773;SDS011;4926;42.670;23.316;2023-11-21T09:05:48;24.77;;;14.55;;
9773;SDS011;4926;42.670;23.316;2023-11-21T09:08:16;18.98;;;13.40;;
9773;SDS011;4926;42.670;23.316;2023-11-21T09:10:43;22.88;;;13.07;;
9773;SDS011;4926;42.670;23.316;2023-11-21T09:13:12;26.45;;;13.82;;
9773;SDS011;4926;42.670;23.316;2023-11-21T09:15:43;21.65;;;12.75;;
9773;SDS011;4926;42.670;23.316;2023-11-21T09:18:14;17.40;;;13.48;;
9773;SDS011;4926;42.670;23.316;2023-11-21T09:20:41;19.42;;;12.02;;
9773;SDS011;4926;42.670;23.316;2023-11-21T09:23:09;22.63;;;12.25;;
9773;SDS011;4926;42.670;23.316;2023-11-21T09:25:36;17.70;;;12.18;;
9773;SDS011;4926;42.670;23.316;2023-11-21T09:28:03;23.55;;;13.30;;
9773;SDS011;4926;42.670;23.316;2023-11-21T09:30:33;19.48;;;13.20;;
9773;SDS011;4926;42.670;23.316;2023-11-21T09:33:01;22.55;;;14.32;;
9773;SDS011;4926;42.670;23.316;2023-11-21T09:35:28;21.42;;;14.05;;
9773;SDS011;4926;42.670;23.316;2023-11-21T09:37:59;27.05;;;14.80;;
9773;SDS011;4926;42.670;23.316;2023-11-21T09:40:27;22.33;;;16.35;;
9773;SDS011;4926;42.670;23.316;2023-11-21T09:42:57;24.67;;;16.15;;
9773;SDS011;4926;42.670;23.316;2023-11-21T09:45:25;28.45;;;16.67;;
9773;SDS011;4926;42.670;23.316;2023-11-21T09:47:53;27.52;;;16.52;;
9773;SDS011;4926;42.670;23.316;2023-11-21T09:50:23;26.85;;;16.60;;
9773;SDS011;4926;42.670;23.316;2023-11-21T09:52:55;21.08;;;13.65;;
9773;SDS011;4926;42.670;23.316;2023-11-21T09:55:26;22.50;;;12.95;;
9773;SDS011;4926;42.670;23.316;2023-11-21T09:57:55;23.35;;;14.10;;
9773;SDS011;4926;42.670;23.316;2023-11-21T10:00:23;27.33;;;14.43;;
9773;SDS011;4926;42.670;23.316;2023-11-21T10:02:50;25.80;;;16.58;;
9773;SDS011;4926;42.670;23.316;2023-11-21T10:05:19;29.98;;;19.75;;
9773;SDS011;4926;42.670;23.316;2023-11-21T10:07:52;26.02;;;15.57;;
9773;SDS011;4926;42.670;23.316;2023-11-21T10:10:22;25.60;;;18.63;;
9773;SDS011;4926;42.670;23.316;2023-11-21T10:12:51;37.60;;;22.88;;
9773;SDS011;4926;42.670;23.316;2023-11-21T10:15:22;38.00;;;28.27;;
9773;SDS011;4926;42.670;23.316;2023-11-21T10:17:50;40.15;;;24.73;;
9773;SDS011;4926;42.670;23.316;2023-11-21T10:20:19;39.30;;;20.92;;
9773;SDS011;4926;42.670;23.316;2023-11-21T10:22:46;31.92;;;20.92;;
9773;SDS011;4926;42.670;23.316;2023-11-21T10:25:14;29.10;;;21.88;;
9773;SDS011;4926;42.670;23.316;2023-11-21T10:27:43;35.80;;;22.35;;
9773;SDS011;4926;42.670;23.316;2023-11-21T10:30:15;32.22;;;25.08;;
9773;SDS011;4926;42.670;23.316;2023-11-21T10:32:43;35.95;;;24.50;;
9773;SDS011;4926;42.670;23.316;2023-11-21T10:35:12;36.15;;;24.90;;
9773;SDS011;4926;42.670;23.316;2023-11-21T10:37:39;42.83;;;27.00;;
9773;SDS011;4926;42.670;23.316;2023-11-21T10:40:06;42.03;;;27.30;;
9773;SDS011;4926;42.670;23.316;2023-11-21T10:42:37;36.15;;;25.20;;
9773;SDS011;4926;42.670;23.316;2023-11-21T10:45:04;41.92;;;24.33;;
9773;SDS011;4926;42.670;23.316;2023-11-21T10:47:37;37.10;;;24.55;;
9773;SDS011;4926;42.670;23.316;2023-11-21T10:50:05;44.78;;;26.23;;
9773;SDS011;4926;42.670;23.316;2023-11-21T10:52:36;37.63;;;26.58;;
9773;SDS011;4926;42.670;23.316;2023-11-21T10:55:10;33.72;;;25.27;;
9773;SDS011;4926;42.670;23.316;2023-11-21T10:57:44;38.15;;;23.67;;
9773;SDS011;4926;42.670;23.316;2023-11-21T11:00:17;36.17;;;22.67;;
9773;SDS011;4926;42.670;23.316;2023-11-21T11:02:46;31.38;;;21.25;;
9773;SDS011;4926;42.670;23.316;2023-11-21T11:05:16;30.48;;;19.75;;
9773;SDS011;4926;42.670;23.316;2023-11-21T11:07:50;29.95;;;21.13;;
9773;SDS011;4926;42.670;23.316;2023-11-21T11:10:19;27.55;;;19.00;;
9773;SDS011;4926;42.670;23.316;2023-11-21T11:12:52;25.65;;;18.85;;
9773;SDS011;4926;42.670;23.316;2023-11-21T11:15:20;25.90;;;18.73;;
9773;SDS011;4926;42.670;23.316;2023-11-21T11:17:48;27.65;;;17.90;;
9773;SDS011;4926;42.670;23.316;2023-11-21T11:20:19;21.58;;;14.93;;
9773;SDS011;4926;42.670;23.316;2023-11-21T11:22:49;20.55;;;14.77;;
9773;SDS011;4926;42.670;23.316;2023-11-21T11:25:30;24.70;;;14.90;;
9773;SDS011;4926;42.670;23.316;2023-11-21T11:28:10;21.90;;;16.95;;
9773;SDS011;4926;42.670;23.316;2023-11-21T11:30:42;26.45;;;17.17;;
9773;SDS011;4926;42.670;23.316;2023-11-21T11:33:22;22.10;;;17.02;;
9773;SDS011;4926;42.670;23.316;2023-11-21T11:35:57;26.80;;;19.30;;
9773;SDS011;4926;42.670;23.316;2023-11-21T11:38:32;25.42;;;20.05;;
9773;SDS011;4926;42.670;23.316;2023-11-21T11:41:02;31.67;;;20.05;;
9773;SDS011;4926;42.670;23.316;2023-11-21T11:43:35;32.33;;;19.80;;
9773;SDS011;4926;42.670;23.316;2023-11-21T11:46:10;25.38;;;18.13;;
9773;SDS011;4926;42.670;23.316;2023-11-21T11:48:39;27.10;;;19.75;;
9773;SDS011;4926;42.670;23.316;2023-11-21T11:51:09;29.13;;;18.42;;
9773;SDS011;4926;42.670;23.316;2023-11-21T11:53:40;25.98;;;17.85;;
9773;SDS011;4926;42.670;23.316;2023-11-21T11:56:21;30.27;;;18.92;;
9773;SDS011;4926;42.670;23.316;2023-11-21T11:58:52;33.38;;;20.20;;
9773;SDS011;4926;42.670;23.316;2023-11-21T12:01:20;31.08;;;18.75;;
9773;SDS011;4926;42.670;23.316;2023-11-21T12:06:50;30.05;;;19.00;;
9773;SDS011;4926;42.670;23.316;2023-11-21T12:09:18;27.50;;;21.13;;
9773;SDS011;4926;42.670;23.316;2023-11-21T12:11:49;30.00;;;20.75;;
9773;SDS011;4926;42.670;23.316;2023-11-21T12:14:17;27.85;;;20.73;;
9773;SDS011;4926;42.670;23.316;2023-11-21T12:16:44;34.05;;;21.10;;
9773;SDS011;4926;42.670;23.316;2023-11-21T12:19:11;28.15;;;19.17;;
9773;SDS011;4926;42.670;23.316;2023-11-21T12:21:43;28.73;;;18.65;;
9773;SDS011;4926;42.670;23.316;2023-11-21T12:24:13;23.90;;;17.58;;
9773;SDS011;4926;42.670;23.316;2023-11-21T12:26:41;28.17;;;18.50;;
9773;SDS011;4926;42.670;23.316;2023-11-21T12:29:09;26.83;;;18.42;;
9773;SDS011;4926;42.670;23.316;2023-11-21T12:31:37;28.15;;;19.02;;
9773;SDS011;4926;42.670;23.316;2023-11-21T12:34:05;33.88;;;21.00;;
9773;SDS011;4926;42.670;23.316;2023-11-21T12:36:32;29.40;;;22.08;;
9773;SDS011;4926;42.670;23.316;2023-11-21T12:39:00;40.83;;;23.38;;
9773;SDS011;4926;42.670;23.316;2023-11-21T12:41:28;33.17;;;23.20;;
9773;SDS011;4926;42.670;23.316;2023-11-21T12:43:55;32.72;;;24.27;;
9773;SDS011;4926;42.670;23.316;2023-11-21T12:46:22;31.48;;;23.98;;
9773;SDS011;4926;42.670;23.316;2023-11-21T12:48:52;38.17;;;25.15;;
9773;SDS011;4926;42.670;23.316;2023-11-21T12:51:19;39.75;;;24.33;;
9773;SDS011;4926;42.670;23.316;2023-11-21T12:53:48;34.28;;;23.50;;
9773;SDS011;4926;42.670;23.316;2023-11-21T12:56:16;32.25;;;23.05;;
9773;SDS011;4926;42.670;23.316;2023-11-21T12:58:44;36.22;;;23.80;;
9773;SDS011;4926;42.670;23.316;2023-11-21T13:01:17;31.00;;;24.30;;
9773;SDS011;4926;42.670;23.316;2023-11-21T13:03:47;37.38;;;24.40;;
9773;SDS011;4926;42.670;23.316;2023-11-21T13:06:18;37.50;;;24.52;;
9773;SDS011;4926;42.670;23.316;2023-11-21T13:08:50;52.00;;;39.25;;
9773;SDS011;4926;42.670;23.316;2023-11-21T13:11:17;42.63;;;31.88;;
9773;SDS011;4926;42.670;23.316;2023-11-21T13:13:47;38.38;;;28.27;;
9773;SDS011;4926;42.670;23.316;2023-11-21T13:16:18;49.33;;;35.85;;
9773;SDS011;4926;42.670;23.316;2023-11-21T13:18:45;38.42;;;25.52;;
9773;SDS011;4926;42.670;23.316;2023-11-21T13:21:12;35.55;;;24.58;;
9773;SDS011;4926;42.670;23.316;2023-11-21T13:23:42;46.00;;;29.38;;
9773;SDS011;4926;42.670;23.316;2023-11-21T13:26:11;37.25;;;25.58;;
9773;SDS011;4926;42.670;23.316;2023-11-21T13:28:39;44.17;;;28.63;;
9773;SDS011;4926;42.670;23.316;2023-11-21T13:31:11;41.80;;;27.92;;
9773;SDS011;4926;42.670;23.316;2023-11-21T13:33:46;47.58;;;28.08;;
9773;SDS011;4926;42.670;23.316;2023-11-21T13:36:16;42.05;;;27.52;;
9773;SDS011;4926;42.670;23.316;2023-11-21T13:38:51;39.35;;;27.65;;
9773;SDS011;4926;42.670;23.316;2023-11-21T13:41:23;37.35;;;28.10;;
9773;SDS011;4926;42.670;23.316;2023-11-21T13:43:55;35.55;;;25.38;;
9773;SDS011;4926;42.670;23.316;2023-11-21T13:46:29;34.65;;;25.90;;
9773;SDS011;4926;42.670;23.316;2023-11-21T13:49:02;34.63;;;24.30;;
9773;SDS011;4926;42.670;23.316;2023-11-21T13:51:30;38.47;;;24.80;;
9773;SDS011;4926;42.670;23.316;2023-11-21T13:54:05;40.65;;;25.38;;
9773;SDS011;4926;42.670;23.316;2023-11-21T13:56:38;36.13;;;25.95;;
9773;SDS011;4926;42.670;23.316;2023-11-21T13:59:06;38.80;;;26.58;;
9773;SDS011;4926;42.670;23.316;2023-11-21T14:01:43;35.10;;;25.48;;
9773;SDS011;4926;42.670;23.316;2023-11-21T14:04:27;36.83;;;25.63;;
9773;SDS011;4926;42.670;23.316;2023-11-21T14:07:20;39.38;;;26.58;;
9773;SDS011;4926;42.670;23.316;2023-11-21T14:09:55;36.67;;;27.23;;
9773;SDS011;4926;42.670;23.316;2023-11-21T14:12:23;33.72;;;25.17;;
9773;SDS011;4926;42.670;23.316;2023-11-21T14:15:08;42.95;;;26.88;;
9773;SDS011;4926;42.670;23.316;2023-11-21T14:17:42;40.85;;;26.10;;
9773;SDS011;4926;42.670;23.316;2023-11-21T14:20:09;40.67;;;27.38;;
9773;SDS011;4926;42.670;23.316;2023-11-21T14:22:44;38.25;;;27.00;;
9773;SDS011;4926;42.670;23.316;2023-11-21T14:25:11;38.83;;;27.70;;
9773;SDS011;4926;42.670;23.316;2023-11-21T14:27:42;39.58;;;28.35;;
9773;SDS011;4926;42.670;23.316;2023-11-21T14:30:09;40.75;;;28.85;;
9773;SDS011;4926;42.670;23.316;2023-11-21T14:32:38;37.33;;;25.98;;
9773;SDS011;4926;42.670;23.316;2023-11-21T14:35:05;40.35;;;26.00;;
9773;SDS011;4926;42.670;23.316;2023-11-21T14:37:34;39.28;;;27.08;;
9773;SDS011;4926;42.670;23.316;2023-11-21T14:40:03;41.90;;;27.25;;
9773;SDS011;4926;42.670;23.316;2023-11-21T14:42:33;44.70;;;28.48;;
9773;SDS011;4926;42.670;23.316;2023-11-21T14:45:04;39.53;;;28.42;;
9773;SDS011;4926;42.670;23.316;2023-11-21T14:47:33;44.15;;;29.00;;
9773;SDS011;4926;42.670;23.316;2023-11-21T14:50:00;42.38;;;28.48;;